Time;durP1;ratioP1;P1;durP2;ratioP2;P2;SDS_P1;SDS_P2;PMS_P1;PMS_P2;Temp;Humidity;BMP_temperature;BMP_pressure;BME280_temperature;BME280_humidity;BME280_pressure;Samples;Min_cycle;Max_cycle;Signal;HPM_P1;HPM_P2
2023/07/09 00:01:10;;;;;;;;;;;;;;;23.70;45.20;100815.84;5450884;32;35387;-78
2023/07/09 00:04:12;;;;;;;;;;;;;;;23.66;45.78;100825.16;5443922;32;34440;-78
2023/07/09 00:07:17;;;;;;;;;;;;;;;23.73;46.37;100821.78;5459223;32;35451;-78
2023/07/09 00:10:19;;;;;;;;;;;;;;;22.92;48.73;100825.19;5464593;32;34960;-77
2023/07/09 00:13:22;;;;;;;;;;;;;;;22.92;49.13;100826.03;5434042;32;37047;-77
2023/07/09 00:16:25;;;;;;;;;;;;;;;23.07;48.71;100823.91;5450364;32;34836;-77
2023/07/09 00:19:29;;;;;;;;;;;;;;;22.85;49.38;100829.31;5447102;32;34626;-76
2023/07/09 00:22:31;;;;;;;;;;;;;;;22.88;49.49;100835.31;5463570;32;34586;-79
2023/07/09 00:25:35;;;;;;;;;;;;;;;22.93;49.29;100827.75;5461606;32;34723;-77
2023/07/09 00:28:37;;;;;;;;;;;;;;;22.64;50.25;100829.28;5431968;32;35098;-77
2023/07/09 00:31:41;;;;;;;;;;;;;;;22.73;49.91;100819.63;5454393;32;34914;-77
2023/07/09 00:34:48;;;;;;;;;;;;;;;22.98;49.26;100816.63;5433632;32;34977;-78
2023/07/09 00:37:50;;;;;;;;;;;;;;;22.58;50.52;100827.97;5469278;32;35387;-79
2023/07/09 00:40:59;;;;;;;;;;;;;;;23.86;47.06;100824.25;5449228;32;35949;-78
2023/07/09 00:44:13;;;;;;;;;;;;;;;23.98;46.17;100825.00;5463021;32;34795;-78
2023/07/09 00:47:21;;;;;;;;;;;;;;;23.00;48.45;100825.41;5449281;32;36606;-78
2023/07/09 00:50:41;;;;;;;;;;;;;;;22.81;49.30;100823.37;5445624;32;34616;-79
2023/07/09 00:53:47;;;;;;;;;;;;;;;22.76;49.37;100822.91;5469119;32;34199;-78
2023/07/09 00:56:51;;;;;;;;;;;;;;;22.70;49.42;100818.91;5459331;32;34667;-78
2023/07/09 00:59:54;;;;;;;;;;;;;;;23.30;46.96;100821.09;5438298;32;34526;-78
2023/07/09 01:02:58;;;;;;;;;;;;;;;22.33;48.90;100817.56;5450850;32;34558;-78
2023/07/09 01:06:00;;;;;;;;;;;;;;;22.32;49.21;100807.84;5462933;32;34545;-79
2023/07/09 01:09:03;;;;;;;;;;;;;;;23.18;46.47;100813.09;5452711;32;34761;-79
2023/07/09 01:12:06;;;;;;;;;;;;;;;23.22;46.20;100816.37;5462094;32;34357;-79
2023/07/09 01:15:08;;;;;;;;;;;;;;;22.71;47.25;100819.75;5452623;32;35101;-78
2023/07/09 01:18:10;;;;;;;;;;;;;;;22.51;48.08;100812.53;5448302;32;34696;-78
2023/07/09 01:21:15;;;;;;;;;;;;;;;22.38;48.42;100813.53;5436040;32;35583;-78
2023/07/09 01:24:37;;;;;;;;;;;;;;;22.63;47.91;100815.03;5453582;32;35001;-78
2023/07/09 01:27:41;;;;;;;;;;;;;;;23.22;46.15;100816.37;5461882;32;34835;-79
2023/07/09 01:30:43;;;;;;;;;;;;;;;23.06;46.66;100816.84;5451656;32;36067;-78
2023/07/09 01:33:45;;;;;;;;;;;;;;;22.65;48.04;100818.44;5448410;32;34901;-77
2023/07/09 01:36:47;;;;;;;;;;;;;;;22.56;49.01;100823.72;5459003;32;34311;-77
2023/07/09 01:39:50;;;;;;;;;;;;;;;22.49;49.43;100831.41;5450730;32;34832;-77
2023/07/09 01:42:52;;;;;;;;;;;;;;;22.28;49.78;100825.09;5448181;32;34639;-77
2023/07/09 01:45:57;;;;;;;;;;;;;;;23.06;47.94;100824.91;5463503;32;35041;-78
2023/07/09 01:48:59;;;;;;;;;;;;;;;23.12;47.86;100831.53;5432365;32;35268;-79
2023/07/09 01:52:02;;;;;;;;;;;;;;;22.21;50.91;100832.78;5452328;32;35451;-77
2023/07/09 01:55:04;;;;;;;;;;;;;;;22.21;51.26;100843.50;5452592;32;35331;-77
2023/07/09 01:58:08;;;;;;;;;;;;;;;22.53;50.32;100840.87;5450635;32;34170;-77
2023/07/09 02:01:10;;;;;;;;;;;;;;;21.87;52.40;100848.00;5440155;32;35130;-78
2023/07/09 02:04:12;;;;;;;;;;;;;;;22.13;52.01;100851.31;5455495;32;35343;-77
2023/07/09 02:07:14;;;;;;;;;;;;;;;21.60;53.31;100845.66;5451805;32;35158;-77
2023/07/09 02:10:16;;;;;;;;;;;;;;;22.31;51.59;100839.12;5461790;32;35405;-77
2023/07/09 02:13:18;;;;;;;;;;;;;;;22.10;51.93;100843.53;5452048;32;35253;-77
2023/07/09 02:16:20;;;;;;;;;;;;;;;21.93;52.53;100847.50;5435120;32;35065;-77
2023/07/09 02:19:22;;;;;;;;;;;;;;;21.68;53.10;100847.72;5464806;32;35457;-77
2023/07/09 02:22:24;;;;;;;;;;;;;;;21.57;53.46;100846.72;5448438;32;35401;-78
2023/07/09 02:25:27;;;;;;;;;;;;;;;21.53;53.80;100856.00;5462393;32;34703;-77
2023/07/09 02:28:29;;;;;;;;;;;;;;;21.27;54.56;100862.47;5452817;32;34281;-77
2023/07/09 02:31:31;;;;;;;;;;;;;;;21.65;53.30;100851.50;5461322;32;34946;-77
2023/07/09 02:34:32;;;;;;;;;;;;;;;21.51;53.79;100851.72;5439688;32;34730;-78
2023/07/09 02:37:35;;;;;;;;;;;;;;;21.97;52.60;100850.81;5460812;32;34747;-78
2023/07/09 02:40:37;;;;;;;;;;;;;;;22.08;52.08;100851.63;5449108;32;34695;-78
2023/07/09 02:43:39;;;;;;;;;;;;;;;22.10;51.90;100852.41;5466471;32;35403;-78
2023/07/09 02:46:41;;;;;;;;;;;;;;;22.16;52.06;100849.25;5443149;32;35185;-78
2023/07/09 02:49:43;;;;;;;;;;;;;;;21.37;54.25;100847.44;5452722;32;34630;-78
2023/07/09 02:52:45;;;;;;;;;;;;;;;21.76;53.26;100845.31;5464292;32;36720;-78
2023/07/09 02:55:47;;;;;;;;;;;;;;;21.80;53.12;100844.09;5471639;32;35282;-78
2023/07/09 02:58:52;;;;;;;;;;;;;;;21.41;53.81;100851.59;5447839;32;35375;-78
2023/07/09 03:01:54;;;;;;;;;;;;;;;21.55;53.26;100843.34;5446735;32;34190;-77
2023/07/09 03:04:56;;;;;;;;;;;;;;;22.02;52.27;100844.09;5466676;32;34230;-79
2023/07/09 03:07:58;;;;;;;;;;;;;;;22.02;52.01;100852.12;5462488;32;34435;-79
2023/07/09 03:11:07;;;;;;;;;;;;;;;22.67;50.25;100854.00;5438528;32;36625;-77
2023/07/09 03:14:09;;;;;;;;;;;;;;;22.20;51.28;100859.69;5461745;32;34779;-77
2023/07/09 03:17:12;;;;;;;;;;;;;;;22.61;49.99;100859.88;5450859;32;34992;-79
2023/07/09 03:20:14;;;;;;;;;;;;;;;22.66;49.97;100863.00;5446764;32;34496;-79
2023/07/09 03:23:16;;;;;;;;;;;;;;;22.41;50.86;100866.84;5447580;32;34223;-78
2023/07/09 03:26:18;;;;;;;;;;;;;;;21.65;52.85;100872.06;5451879;32;35084;-78
2023/07/09 03:29:20;;;;;;;;;;;;;;;21.69;53.27;100871.69;5448015;32;35418;-78
2023/07/09 03:32:22;;;;;;;;;;;;;;;22.31;51.83;100868.56;5451762;32;34430;-77
2023/07/09 03:35:24;;;;;;;;;;;;;;;22.51;51.42;100874.13;5434733;32;34632;-79
2023/07/09 03:38:27;;;;;;;;;;;;;;;22.63;51.24;100867.78;5451294;32;35335;-77
2023/07/09 03:41:29;;;;;;;;;;;;;;;22.65;51.25;100869.34;5433577;32;35142;-77
2023/07/09 03:44:33;;;;;;;;;;;;;;;22.70;51.14;100874.34;5461606;32;34724;-78
2023/07/09 03:47:35;;;;;;;;;;;;;;;22.16;52.37;100872.50;5453069;32;34593;-77
2023/07/09 03:50:37;;;;;;;;;;;;;;;22.23;52.07;100868.34;5459962;32;34284;-78
2023/07/09 03:53:39;;;;;;;;;;;;;;;21.93;52.58;100865.38;5439635;32;34919;-79
2023/07/09 03:56:41;;;;;;;;;;;;;;;21.87;52.73;100859.53;5445531;32;34459;-79
2023/07/09 03:59:43;;;;;;;;;;;;;;;22.08;52.53;100870.38;5450464;32;34337;-77
2023/07/09 04:02:45;;;;;;;;;;;;;;;21.50;53.88;100871.41;5461998;32;34628;-78
2023/07/09 04:05:48;;;;;;;;;;;;;;;21.75;54.04;100862.34;5466245;32;35813;-78
2023/07/09 04:08:50;;;;;;;;;;;;;;;22.06;53.09;100858.94;5451522;32;34283;-79
2023/07/09 04:11:52;;;;;;;;;;;;;;;22.36;51.51;100865.53;5447599;32;34852;-78
2023/07/09 04:14:53;;;;;;;;;;;;;;;22.31;50.59;100873.06;5467707;32;34191;-78
2023/07/09 04:17:56;;;;;;;;;;;;;;;22.21;50.77;100869.41;5448146;32;35002;-78
2023/07/09 04:20:58;;;;;;;;;;;;;;;22.70;48.96;100874.34;5471161;32;35217;-77
2023/07/09 04:24:00;;;;;;;;;;;;;;;22.52;48.74;100874.00;5464390;32;35130;-78
2023/07/09 04:27:02;;;;;;;;;;;;;;;22.57;48.38;100873.63;5435492;32;35000;-77
2023/07/09 04:30:10;;;;;;;;;;;;;;;23.02;47.51;100877.06;5452979;32;34655;-76
2023/07/09 04:33:12;;;;;;;;;;;;;;;22.76;48.30;100878.34;5448865;32;35131;-78
2023/07/09 04:36:14;;;;;;;;;;;;;;;22.85;48.22;100882.94;5441510;32;34927;-77
2023/07/09 04:39:16;;;;;;;;;;;;;;;23.01;48.32;100872.69;5463005;32;34375;-77
2023/07/09 04:42:18;;;;;;;;;;;;;;;23.01;48.75;100872.69;5450113;32;35423;-78
2023/07/09 04:45:20;;;;;;;;;;;;;;;23.02;48.84;100879.75;5436034;32;34748;-78
2023/07/09 04:48:22;;;;;;;;;;;;;;;22.93;49.28;100884.03;5459644;32;34896;-78
2023/07/09 04:51:24;;;;;;;;;;;;;;;22.93;49.80;100880.50;5451325;32;34534;-78
2023/07/09 04:54:26;;;;;;;;;;;;;;;22.95;49.30;100881.22;5463949;32;34885;-78
2023/07/09 04:57:28;;;;;;;;;;;;;;;24.03;46.41;100876.47;5440606;32;34168;-78
2023/07/09 05:00:30;;;;;;;;;;;;;;;24.11;45.81;100878.47;5464317;32;34350;-77
2023/07/09 05:03:32;;;;;;;;;;;;;;;23.87;45.85;100876.09;5436365;32;34595;-78
2023/07/09 05:06:35;;;;;;;;;;;;;;;24.65;43.78;100878.09;5465246;32;35418;-78
2023/07/09 05:09:37;;;;;;;;;;;;;;;26.29;40.33;100877.03;5448723;32;32959;-77
2023/07/09 05:12:50;;;;;;;;;;;;;;;25.22;42.49;100887.22;5467311;32;34717;-78
2023/07/09 05:15:51;;;;;;;;;;;;;;;26.12;40.95;100870.59;5462186;32;34179;-77
2023/07/09 05:18:53;;;;;;;;;;;;;;;26.81;38.72;100879.16;5460096;32;35213;-78
2023/07/09 05:21:55;;;;;;;;;;;;;;;26.34;39.68;100880.13;5462523;32;35243;-78
2023/07/09 05:24:57;;;;;;;;;;;;;;;27.15;38.17;100879.34;5462444;32;35559;-78
2023/07/09 05:27:59;;;;;;;;;;;;;;;28.35;35.76;100874.06;5468408;32;35556;-78
2023/07/09 05:31:01;;;;;;;;;;;;;;;27.76;37.11;100867.69;5450570;32;34748;-78
2023/07/09 05:34:03;;;;;;;;;;;;;;;28.04;35.75;100869.19;5440306;32;35485;-78
2023/07/09 05:37:05;;;;;;;;;;;;;;;26.95;37.44;100865.97;5447737;32;35416;-77
2023/07/09 05:40:08;;;;;;;;;;;;;;;27.55;36.29;100865.31;5449286;32;35550;-79
2023/07/09 05:43:11;;;;;;;;;;;;;;;28.91;34.15;100868.94;5448625;32;34707;-77
2023/07/09 05:46:13;;;;;;;;;;;;;;;29.22;33.43;100871.88;5445202;32;35238;-77
2023/07/09 05:49:15;;;;;;;;;;;;;;;28.74;34.54;100871.63;5466066;32;35046;-78
2023/07/09 05:52:17;;;;;;;;;;;;;;;28.96;33.89;100872.03;5436810;32;35259;-78
2023/07/09 05:55:20;;;;;;;;;;;;;;;30.85;30.89;100869.53;5466435;32;34831;-78
2023/07/09 05:58:22;;;;;;;;;;;;;;;30.44;31.61;100868.91;5448437;32;36112;-78
2023/07/09 06:01:25;;;;;;;;;;;;;;;29.53;32.92;100870.19;5466704;32;35665;-78
2023/07/09 06:04:27;;;;;;;;;;;;;;;31.21;30.22;100868.91;5448787;32;33763;-78
2023/07/09 06:07:29;;;;;;;;;;;;;;;32.36;28.11;100869.44;5461998;32;34845;-78
2023/07/09 06:10:31;;;;;;;;;;;;;;;31.58;29.02;100862.66;5466337;32;35211;-78
2023/07/09 06:13:33;;;;;;;;;;;;;;;30.95;30.04;100863.87;5448647;32;35279;-78
2023/07/09 06:16:37;;;;;;;;;;;;;;;31.15;30.19;100859.63;5466269;32;34306;-78
2023/07/09 06:19:39;;;;;;;;;;;;;;;32.18;28.12;100858.09;5461861;32;32596;-79
2023/07/09 06:22:40;;;;;;;;;;;;;;;32.04;28.81;100862.50;5438730;32;35342;-78
2023/07/09 06:25:43;;;;;;;;;;;;;;;32.83;27.01;100857.19;5447708;32;34510;-79
2023/07/09 06:28:45;;;;;;;;;;;;;;;33.08;26.66;100860.41;5462925;32;36423;-79
2023/07/09 06:31:47;;;;;;;;;;;;;;;33.31;26.30;100861.03;5469217;32;34644;-77
2023/07/09 06:34:50;;;;;;;;;;;;;;;33.90;25.25;100860.63;5461651;32;34463;-77
2023/07/09 06:37:52;;;;;;;;;;;;;;;34.15;25.10;100850.09;5466097;32;34346;-79
2023/07/09 06:40:54;;;;;;;;;;;;;;;33.49;25.00;100846.94;5448329;32;34734;-78
2023/07/09 06:43:56;;;;;;;;;;;;;;;33.40;25.17;100853.56;5451542;32;35880;-79
2023/07/09 06:46:58;;;;;;;;;;;;;;;34.09;24.55;100840.00;5455986;32;34452;-78
2023/07/09 06:50:00;;;;;;;;;;;;;;;33.15;25.78;100855.84;5445219;32;35875;-78
2023/07/09 06:53:03;;;;;;;;;;;;;;;33.94;24.99;100853.75;5448956;32;34504;-78
2023/07/09 06:56:05;;;;;;;;;;;;;;;35.78;22.74;100848.00;5446025;32;35811;-79
2023/07/09 06:59:07;;;;;;;;;;;;;;;37.33;20.97;100840.44;5455817;32;34778;-78
2023/07/09 07:02:09;;;;;;;;;;;;;;;37.07;21.66;100844.25;5447175;32;35272;-78
2023/07/09 07:05:12;;;;;;;;;;;;;;;34.26;25.17;100848.62;5451321;32;35181;-78
2023/07/09 07:08:15;;;;;;;;;;;;;;;37.26;21.60;100845.16;5421479;32;852687;-78
2023/07/09 07:11:17;;;;;;;;;;;;;;;37.79;21.00;100844.66;5429917;32;34920;-79
2023/07/09 07:14:19;;;;;;;;;;;;;;;35.62;23.40;100851.19;5466277;32;35401;-79
2023/07/09 07:17:21;;;;;;;;;;;;;;;34.98;24.44;100850.78;5450623;32;35418;-78
2023/07/09 07:20:24;;;;;;;;;;;;;;;36.94;22.00;100852.59;5468202;32;34300;-78
2023/07/09 07:23:26;;;;;;;;;;;;;;;35.44;23.66;100844.50;5447676;32;35306;-80
2023/07/09 07:26:28;;;;;;;;;;;;;;;35.76;23.11;100840.03;5464332;32;34508;-79
2023/07/09 07:29:30;;;;;;;;;;;;;;;38.14;20.27;100843.00;5448004;32;34797;-77
2023/07/09 07:32:32;;;;;;;;;;;;;;;36.08;22.49;100845.66;5461637;32;35080;-79
2023/07/09 07:35:34;;;;;;;;;;;;;;;36.72;21.31;100841.13;5465406;32;35391;-79
2023/07/09 07:38:36;;;;;;;;;;;;;;;36.30;21.80;100841.53;5461513;32;34622;-79
2023/07/09 07:41:38;;;;;;;;;;;;;;;38.25;19.67;100833.13;5447850;32;34330;-80
2023/07/09 07:44:40;;;;;;;;;;;;;;;36.76;21.42;100842.34;5445831;32;34257;-78
2023/07/09 07:47:43;;;;;;;;;;;;;;;36.99;20.79;100848.13;5461150;32;34642;-78
2023/07/09 07:50:47;;;;;;;;;;;;;;;37.83;19.69;100832.19;5450378;32;35061;-79
2023/07/09 07:53:49;;;;;;;;;;;;;;;35.98;21.99;100837.03;5461059;32;34300;-79
2023/07/09 07:56:51;;;;;;;;;;;;;;;37.51;20.26;100836.94;5464819;32;34319;-80
2023/07/09 07:59:53;;;;;;;;;;;;;;;37.61;20.64;100835.38;5460907;32;35199;-79
2023/07/09 08:02:55;;;;;;;;;;;;;;;37.31;20.65;100848.06;5448933;32;34507;-79
2023/07/09 08:05:58;;;;;;;;;;;;;;;38.12;19.45;100831.41;5460577;32;34921;-77
2023/07/09 08:09:03;;;;;;;;;;;;;;;37.97;19.28;100830.97;5463254;32;36505;-78
2023/07/09 08:12:09;;;;;;;;;;;;;;;35.31;22.55;100838.19;5463349;32;34971;-78
2023/07/09 08:15:17;;;;;;;;;;;;;;;37.44;19.76;100836.19;5447879;32;35061;-79
2023/07/09 08:18:19;;;;;;;;;;;;;;;37.54;19.56;100837.31;5450324;32;34900;-80
2023/07/09 08:21:21;;;;;;;;;;;;;;;38.22;19.03;100825.38;5433069;32;34175;-78
2023/07/09 08:24:23;;;;;;;;;;;;;;;37.88;19.04;100827.72;5462829;32;34667;-78
2023/07/09 08:27:25;;;;;;;;;;;;;;;39.53;17.24;100832.66;5460970;32;35568;-78
2023/07/09 08:30:27;;;;;;;;;;;;;;;37.57;18.87;100833.28;5450005;32;36918;-78
2023/07/09 08:33:29;;;;;;;;;;;;;;;39.60;17.08;100835.31;5450320;32;34325;-78
2023/07/09 08:36:31;;;;;;;;;;;;;;;38.01;16.36;100834.94;5460181;32;34743;-78
2023/07/09 08:39:33;;;;;;;;;;;;;;;36.52;17.71;100833.87;5450102;32;34669;-78
2023/07/09 08:42:37;;;;;;;;;;;;;;;38.87;16.46;100832.94;5445848;32;34295;-78
2023/07/09 08:46:05;;;;;;;;;;;;;;;38.73;16.83;100833.16;5444901;32;38579;-79
2023/07/09 08:49:19;;;;;;;;;;;;;;;36.80;19.32;100830.75;5446337;32;34874;-78
2023/07/09 08:52:26;;;;;;;;;;;;;;;38.92;16.98;100817.44;5445044;32;35983;-80
2023/07/09 08:55:29;;;;;;;;;;;;;;;38.09;17.68;100820.06;5447874;32;34283;-78
2023/07/09 08:58:31;;;;;;;;;;;;;;;37.79;17.79;100826.28;5447808;32;35531;-78
2023/07/09 09:01:37;;;;;;;;;;;;;;;36.03;19.35;100829.87;5466444;32;34278;-79
2023/07/09 09:04:39;;;;;;;;;;;;;;;35.41;19.83;100835.84;5448101;32;34200;-79
2023/07/09 09:07:41;;;;;;;;;;;;;;;37.66;17.74;100831.91;5448157;32;34091;-78
2023/07/09 09:10:47;;;;;;;;;;;;;;;36.44;18.43;100831.38;5438959;32;34555;-81
2023/07/09 09:13:51;;;;;;;;;;;;;;;37.05;18.09;100822.56;5435617;32;34972;-78
2023/07/09 09:16:53;;;;;;;;;;;;;;;36.75;18.49;100829.72;5469836;32;35592;-77
2023/07/09 09:19:56;;;;;;;;;;;;;;;37.53;18.01;100832.91;5448425;32;35699;-78
2023/07/09 09:23:01;;;;;;;;;;;;;;;38.06;17.35;100824.09;5436988;32;34735;-79
2023/07/09 09:26:03;;;;;;;;;;;;;;;38.81;16.10;100820.16;5446766;32;34786;-78
2023/07/09 09:29:15;;;;;;;;;;;;;;;38.27;15.82;100821.97;5450326;32;34851;-79
2023/07/09 09:32:19;;;;;;;;;;;;;;;38.96;15.44;100831.50;5466661;32;35042;-78
2023/07/09 09:35:30;;;;;;;;;;;;;;;38.41;15.86;100820.72;5450100;32;34972;-79
2023/07/09 09:38:35;;;;;;;;;;;;;;;37.35;16.63;100828.22;5452588;32;34758;-78
2023/07/09 09:41:37;;;;;;;;;;;;;;;37.34;16.45;100826.53;5434842;32;34440;-79
2023/07/09 09:44:43;;;;;;;;;;;;;;;38.56;15.79;100817.53;5447363;32;36272;-78
2023/07/09 09:47:45;;;;;;;;;;;;;;;39.30;15.24;100818.09;5449339;32;36749;-79
2023/07/09 09:50:47;;;;;;;;;;;;;;;38.36;15.20;100817.81;5447280;32;37280;-79
2023/07/09 09:53:50;;;;;;;;;;;;;;;38.21;15.38;100819.06;5452376;32;35093;-79
2023/07/09 09:56:52;;;;;;;;;;;;;;;39.04;14.91;100817.44;5462593;32;36025;-80
2023/07/09 09:59:55;;;;;;;;;;;;;;;39.37;14.18;100813.31;5439842;32;35192;-80
2023/07/09 10:02:58;;;;;;;;;;;;;;;39.48;14.01;100815.19;5462726;32;35199;-81
2023/07/09 10:06:04;;;;;;;;;;;;;;;41.21;12.72;100807.56;5447524;32;35543;-80
2023/07/09 10:09:24;;;;;;;;;;;;;;;41.36;12.38;100813.37;5438877;32;35029;-80
2023/07/09 10:12:34;;;;;;;;;;;;;;;37.37;16.07;100817.06;5461821;32;36989;-80
2023/07/09 10:15:45;;;;;;;;;;;;;;;38.07;15.46;100812.06;5450950;32;34749;-80
2023/07/09 10:18:47;;;;;;;;;;;;;;;39.38;14.39;100804.81;5447439;32;34703;-79
2023/07/09 10:22:05;;;;;;;;;;;;;;;39.07;14.52;100802.38;5463346;32;35107;-78
2023/07/09 10:25:07;;;;;;;;;;;;;;;41.10;12.90;100803.84;5457354;32;34613;-79
2023/07/09 10:28:15;;;;;;;;;;;;;;;38.72;14.86;100805.94;5448666;32;34771;-78
2023/07/09 10:31:18;;;;;;;;;;;;;;;37.94;15.47;100806.75;5466239;32;33881;-77
2023/07/09 10:34:36;;;;;;;;;;;;;;;37.62;15.47;100806.03;5444798;32;35000;-78
2023/07/09 10:37:41;;;;;;;;;;;;;;;38.76;14.43;100800.78;5465328;32;35019;-79
2023/07/09 10:40:44;;;;;;;;;;;;;;;38.80;14.85;100797.34;5465841;32;34576;-79
2023/07/09 10:43:54;;;;;;;;;;;;;;;39.38;14.52;100799.31;5462520;32;36004;-80
2023/07/09 10:47:04;;;;;;;;;;;;;;;40.04;13.98;100795.28;5435644;32;34845;-78
2023/07/09 10:50:12;;;;;;;;;;;;;;;39.92;14.80;100799.94;5442870;32;35770;-78
2023/07/09 10:53:14;;;;;;;;;;;;;;;40.43;13.79;100789.97;5450637;32;34711;-78
2023/07/09 10:56:19;;;;;;;;;;;;;;;37.28;15.94;100793.69;5448427;32;34569;-78
2023/07/09 10:59:29;;;;;;;;;;;;;;;35.28;17.03;100799.28;5447422;32;35601;-79
2023/07/09 11:02:32;;;;;;;;;;;;;;;36.81;15.73;100799.53;5465492;32;34767;-79
2023/07/09 11:05:34;;;;;;;;;;;;;;;38.08;14.70;100789.03;5447816;32;35105;-80
2023/07/09 11:08:37;;;;;;;;;;;;;;;38.86;14.02;100788.16;5458558;32;33448;-81
2023/07/09 11:11:41;;;;;;;;;;;;;;;38.00;14.81;100786.63;5449113;32;35831;-80
2023/07/09 11:14:46;;;;;;;;;;;;;;;41.38;12.74;100791.88;5462061;32;34780;-79
2023/07/09 11:17:48;;;;;;;;;;;;;;;42.15;12.25;100779.06;5453173;32;35350;-80
2023/07/09 11:21:07;;;;;;;;;;;;;;;40.84;13.08;100786.03;5460797;32;34951;-79
2023/07/09 11:24:25;;;;;;;;;;;;;;;39.05;14.84;100786.13;5451280;32;35192;-79
2023/07/09 11:27:27;;;;;;;;;;;;;;;38.52;15.21;100776.00;5444993;32;35408;-79
2023/07/09 11:30:29;;;;;;;;;;;;;;;39.58;14.16;100771.41;5463177;32;34930;-79
2023/07/09 11:33:31;;;;;;;;;;;;;;;40.19;13.72;100767.25;5450194;32;35279;-79
2023/07/09 11:36:34;;;;;;;;;;;;;;;39.69;14.21;100767.84;5447777;32;35079;-80
2023/07/09 11:39:36;;;;;;;;;;;;;;;40.45;13.06;100770.44;5455977;32;35915;-79
2023/07/09 11:43:04;;;;;;;;;;;;;;;38.93;14.11;100775.13;5462034;32;34845;-79
2023/07/09 11:46:14;;;;;;;;;;;;;;;38.07;14.99;100770.91;5455798;32;34436;-78
2023/07/09 11:49:16;;;;;;;;;;;;;;;36.19;16.20;100770.22;5445551;32;34410;-78
2023/07/09 11:52:20;;;;;;;;;;;;;;;36.84;15.85;100770.88;5461197;32;34020;-78
2023/07/09 11:55:29;;;;;;;;;;;;;;;37.64;15.41;100762.75;5449814;32;34159;-78
2023/07/09 11:58:31;;;;;;;;;;;;;;;37.97;15.23;100759.63;5445997;32;35985;-78
2023/07/09 12:01:43;;;;;;;;;;;;;;;37.82;15.45;100754.56;5463768;32;34563;-78
2023/07/09 12:04:49;;;;;;;;;;;;;;;39.17;14.18;100754.03;5446097;32;34555;-79
2023/07/09 12:07:51;;;;;;;;;;;;;;;39.71;13.88;100749.19;5431561;32;35228;-80
2023/07/09 12:10:54;;;;;;;;;;;;;;;41.01;12.50;100746.63;5438171;32;35173;-80
2023/07/09 12:14:03;;;;;;;;;;;;;;;39.11;13.99;100749.47;5428541;32;37585;-79
2023/07/09 12:17:07;;;;;;;;;;;;;;;39.61;13.47;100748.97;5462548;32;35384;-79
2023/07/09 12:20:16;;;;;;;;;;;;;;;36.65;16.06;100752.69;5443160;32;34345;-79
2023/07/09 12:23:18;;;;;;;;;;;;;;;36.34;17.12;100744.25;5457409;32;34883;-78
2023/07/09 12:26:20;;;;;;;;;;;;;;;35.39;18.21;100751.34;5461628;32;35330;-78
2023/07/09 12:29:26;;;;;;;;;;;;;;;35.17;18.17;100749.94;5462983;32;35580;-78
2023/07/09 12:32:28;;;;;;;;;;;;;;;35.84;17.29;100742.41;5465170;32;34356;-78
2023/07/09 12:35:30;;;;;;;;;;;;;;;35.67;17.13;100733.84;5462796;32;34756;-78
2023/07/09 12:38:38;;;;;;;;;;;;;;;35.37;17.51;100728.87;5440662;32;35406;-78
2023/07/09 12:41:41;;;;;;;;;;;;;;;35.11;17.94;100728.94;5448219;32;35502;-78
2023/07/09 12:44:43;;;;;;;;;;;;;;;35.80;17.38;100726.41;5448221;32;36581;-80
2023/07/09 12:47:45;;;;;;;;;;;;;;;35.44;17.61;100727.00;5462445;32;35489;-78
2023/07/09 12:50:51;;;;;;;;;;;;;;;35.35;17.79;100727.38;5448565;32;34693;-79
2023/07/09 12:54:02;;;;;;;;;;;;;;;34.90;17.99;100719.88;5452695;32;35001;-78
2023/07/09 12:57:08;;;;;;;;;;;;;;;34.92;18.33;100711.53;5462570;32;34735;-78
2023/07/09 13:00:14;;;;;;;;;;;;;;;35.48;17.82;100708.25;5452302;32;35799;-78
2023/07/09 13:03:16;;;;;;;;;;;;;;;35.61;17.92;100710.94;5463463;32;35638;-78
2023/07/09 13:06:34;;;;;;;;;;;;;;;34.21;19.10;100712.88;5447857;32;34478;-78
2023/07/09 13:09:36;;;;;;;;;;;;;;;33.67;19.85;100711.00;5466833;32;35774;-78
2023/07/09 13:12:38;;;;;;;;;;;;;;;34.70;19.24;100702.66;5448240;32;34830;-78
2023/07/09 13:15:42;;;;;;;;;;;;;;;35.47;17.80;100710.16;5466494;32;34592;-77
2023/07/09 13:18:44;;;;;;;;;;;;;;;35.26;17.98;100691.28;5463044;32;34506;-78
2023/07/09 13:21:46;;;;;;;;;;;;;;;34.36;18.88;100695.47;5463552;32;34757;-78
2023/07/09 13:24:49;;;;;;;;;;;;;;;34.57;18.89;100702.66;5450406;32;36117;-78
2023/07/09 13:27:51;;;;;;;;;;;;;;;34.65;19.03;100689.66;5463050;32;34753;-78
2023/07/09 13:30:56;;;;;;;;;;;;;;;34.76;18.10;100701.81;5440754;32;34639;-78
2023/07/09 13:33:58;;;;;;;;;;;;;;;34.99;17.92;100691.34;5447697;32;34611;-78
2023/07/09 13:37:00;;;;;;;;;;;;;;;34.80;18.00;100691.34;5450891;32;34417;-80
2023/07/09 13:40:02;;;;;;;;;;;;;;;34.11;18.39;100693.34;5462036;32;35564;-80
2023/07/09 13:43:08;;;;;;;;;;;;;;;34.80;18.06;100683.97;5450004;32;34833;-80
2023/07/09 13:46:10;;;;;;;;;;;;;;;35.62;17.50;100693.50;5463343;32;34470;-78
2023/07/09 13:49:17;;;;;;;;;;;;;;;35.26;17.81;100681.19;5432108;32;36545;-78
2023/07/09 13:52:20;;;;;;;;;;;;;;;35.39;17.46;100685.78;5467106;32;33859;-77
2023/07/09 13:55:23;;;;;;;;;;;;;;;34.74;18.41;100690.28;5449604;32;34319;-80
2023/07/09 13:58:26;;;;;;;;;;;;;;;34.30;18.58;100688.97;5466603;32;35456;-80
2023/07/09 14:01:27;;;;;;;;;;;;;;;33.74;19.61;100697.38;5461832;32;34497;-78
2023/07/09 14:04:31;;;;;;;;;;;;;;;34.03;19.32;100693.53;5448326;32;35131;-78
2023/07/09 14:07:35;;;;;;;;;;;;;;;34.41;18.96;100685.63;5451914;32;34541;-79
2023/07/09 14:10:37;;;;;;;;;;;;;;;34.59;19.08;100682.31;5462212;32;35180;-78
2023/07/09 14:13:39;;;;;;;;;;;;;;;34.64;19.02;100673.47;5451029;32;35935;-78
2023/07/09 14:16:41;;;;;;;;;;;;;;;34.05;19.22;100677.81;5448017;32;35882;-78
2023/07/09 14:19:43;;;;;;;;;;;;;;;34.44;19.15;100677.03;5466755;32;35826;-77
2023/07/09 14:22:46;;;;;;;;;;;;;;;34.55;19.23;100678.31;5448421;32;34794;-78
2023/07/09 14:25:48;;;;;;;;;;;;;;;33.64;19.94;100669.69;5462326;32;35634;-78
2023/07/09 14:28:50;;;;;;;;;;;;;;;33.42;20.41;100685.28;5452735;32;35084;-78
2023/07/09 14:31:52;;;;;;;;;;;;;;;33.48;20.67;100687.22;5470639;32;34747;-78
2023/07/09 14:34:54;;;;;;;;;;;;;;;33.25;21.09;100679.34;5438800;32;34845;-79
2023/07/09 14:37:59;;;;;;;;;;;;;;;33.36;20.80;100678.78;5450142;32;35518;-79
2023/07/09 14:41:01;;;;;;;;;;;;;;;33.33;20.88;100679.16;5451623;32;37038;-79
2023/07/09 14:44:05;;;;;;;;;;;;;;;33.53;20.81;100676.56;5456491;32;35429;-78
2023/07/09 14:47:11;;;;;;;;;;;;;;;34.57;19.69;100678.94;5432317;32;34876;-77
2023/07/09 14:50:13;;;;;;;;;;;;;;;33.94;20.19;100681.13;5447830;32;35265;-79
2023/07/09 14:53:24;;;;;;;;;;;;;;;33.70;20.68;100674.34;5462275;32;35016;-79
2023/07/09 14:56:27;;;;;;;;;;;;;;;33.71;20.81;100673.28;5465992;32;34512;-78
2023/07/09 14:59:28;;;;;;;;;;;;;;;34.70;19.79;100665.28;5447814;32;34953;-78
2023/07/09 15:02:31;;;;;;;;;;;;;;;35.40;18.83;100657.37;5451023;32;35376;-78
2023/07/09 15:05:33;;;;;;;;;;;;;;;34.89;18.96;100651.81;5465296;32;34961;-80
2023/07/09 15:08:34;;;;;;;;;;;;;;;34.34;19.78;100657.50;5462052;32;35917;-78
2023/07/09 15:11:36;;;;;;;;;;;;;;;34.75;19.16;100657.31;5451733;32;34602;-78
2023/07/09 15:14:39;;;;;;;;;;;;;;;33.77;20.21;100658.84;5447373;32;34667;-78
2023/07/09 15:17:41;;;;;;;;;;;;;;;33.39;20.90;100653.03;5450710;32;34746;-78
2023/07/09 15:20:46;;;;;;;;;;;;;;;34.11;20.22;100659.78;5461687;32;34667;-79
2023/07/09 15:23:47;;;;;;;;;;;;;;;33.99;20.58;100658.69;5448983;32;34897;-79
2023/07/09 15:26:52;;;;;;;;;;;;;;;33.70;20.54;100657.13;5465235;32;34625;-78
2023/07/09 15:29:54;;;;;;;;;;;;;;;33.48;20.79;100659.97;5461908;32;34107;-79
2023/07/09 15:32:57;;;;;;;;;;;;;;;34.11;20.13;100654.31;5451721;32;34942;-78
2023/07/09 15:36:12;;;;;;;;;;;;;;;33.93;20.35;100657.63;5461254;32;35568;-79
2023/07/09 15:39:14;;;;;;;;;;;;;;;34.06;20.56;100663.13;5466922;32;35319;-78
2023/07/09 15:42:16;;;;;;;;;;;;;;;33.66;20.86;100657.53;5436242;32;35500;-78